Midland, OH (45148)

7:51 AM EST on March 06, 2015 (GMT -0500)
Marion Township | Change Station
CLOSE
Current Station
Personal Weather Station
Location: Blanchester, OH
Elevation: 978 ft
Nearby Weather Stations

Elev 978 ft 39.27 °N, 83.98 °W | Updated 13 seconds ago

Partly Cloudy
Partly Cloudy
9.3 °F
Feels Like 9 °F
N
0.0
Wind Variable Wind from SE
Gusts 0.0 mph

Today
High -- | Low -- °F
--% Chance of Precip.
Yesterday
High -- | Low -- °F
Precip. -- in
7:01 AM 6:33 PM
Waxing Gibbous, 99% visible
Pressure 30.66 in
Visibility 8.0 miles
Clouds Clear
Windchill 9 °F
Dew Point -8 °F
Humidity 45%
Rainfall in
Snow Depth Not available.
UV 0 out of 12
Pollen 2.10 out of 12
Air Quality Not available.
Flu Activity Not available.
METAR KILN 061154Z AUTO 00000KT 8SM CLR M19/M22 A3051 RMK AO2 SLP383 I6000 T11941217 11150 21194 55001

More Conditions Fewer Conditions

Pressure 30.66 in
Visibility 8.0 miles
Clouds Clear
Windchill 9 °F
Dew Point -8 °F
Humidity 45%
Rainfall in
Snow Depth Not available.
UV 0 out of 12
Pollen 2.10 out of 12
Air Quality Not available.
Flu Activity Not available.
METAR KILN 061154Z AUTO 00000KT 8SM CLR M19/M22 A3051 RMK AO2 SLP383 I6000 T11941217 11150 21194 55001

More Conditions Fewer Conditions

10-Day Weather Forecast

Almanac

Astronomy

Mar. 06, 2015 Rise Set
Actual Time
Civil Twilight
Nautical Twilight
Astronomical Twilight
Moon
Length of Visible Light
Length of Day
Tomorrow will be .
, % of the Moon is Illuminated

Today's Extremes

State Highs State Lows

Community

WunderPhotos

Upload Photos

1,803,246 photos uploaded!

WunderBlogs® & News

Nearby

Air Quality

  Air Quality AQ Index Pollutant
Not available.

Snow Depth

Station Depth Elevation

Earthquake Activity

City Distance Mag. Time & Date
Minimum magnitude displayed is 2.5.

Coastal Water Temperatures

Place Temperature

Nearby Weather Stations